Time;durP1;ratioP1;P1;durP2;ratioP2;P2;SDS_P1;SDS_P2;PMS_P1;PMS_P2;Temp;Humidity;BMP_temperature;BMP_pressure;BME280_temperature;BME280_humidity;BME280_pressure;Samples;Min_cycle;Max_cycle;Signal;HPM_P1;HPM_P2
2022/01/21 00:01:00;;;;;;;6.83;2.70;;;;;;;-145.69;100.00;73960.19;5031290;28;20681;-75
2022/01/21 00:03:27;;;;;;;13.40;3.17;;;;;;;-145.69;100.00;73950.22;5031445;28;20228;-75
2022/01/21 00:05:55;;;;;;;13.73;3.70;;;;;;;-145.69;100.00;73958.19;5030963;28;20204;-75
2022/01/21 00:08:21;;;;;;;8.63;3.30;;;;;;;-145.69;100.00;73952.22;5029367;28;20659;-75
2022/01/21 00:10:48;;;;;;;11.67;3.57;;;;;;;-145.69;100.00;73954.22;5011682;28;20210;-75
2022/01/21 00:13:20;;;;;;;12.13;3.50;;;;;;;-145.69;100.00;73954.22;5011605;28;20236;-75
2022/01/21 00:15:46;;;;;;;7.30;3.10;;;;;;;-145.69;100.00;73966.16;5011545;28;20758;-75
2022/01/21 00:18:19;;;;;;;13.23;3.37;;;;;;;-145.69;100.00;73974.13;5011237;28;20236;-75
2022/01/21 00:31:45;;;;;;;22.13;4.13;;;;;;;-145.69;100.00;73994.03;5011199;28;20314;-75
2022/01/21 00:34:11;;;;;;;9.60;3.67;;;;;;;-145.69;100.00;73984.09;5011222;28;20540;-75
2022/01/21 00:36:37;;;;;;;17.13;4.10;;;;;;;-145.69;100.00;73992.03;5011195;28;20258;-74
2022/01/21 00:39:06;;;;;;;15.50;4.03;;;;;;;-145.69;100.00;73998.03;5016269;28;20192;-75
2022/01/21 00:41:38;;;;;;;16.80;4.27;;;;;;;-145.69;100.00;74004.00;5030716;28;20223;-75
2022/01/21 00:44:04;;;;;;;19.07;4.23;;;;;;;-145.69;100.00;74000.00;5030574;28;20207;-77
2022/01/21 00:46:31;;;;;;;12.03;3.90;;;;;;;-145.69;100.00;73998.03;5030635;28;20268;-77
2022/01/21 00:48:57;;;;;;;11.80;4.17;;;;;;;-145.69;100.00;73986.06;5027201;28;20670;-77
2022/01/21 00:51:24;;;;;;;11.17;3.27;;;;;;;-145.69;100.00;73998.03;5030598;28;20196;-75
2022/01/21 00:53:51;;;;;;;17.20;4.23;;;;;;;-145.69;100.00;73998.03;5030378;28;20224;-75
2022/01/21 00:56:19;;;;;;;9.87;3.07;;;;;;;-145.69;100.00;73994.03;5030369;28;20203;-77
2022/01/21 00:58:45;;;;;;;15.00;3.63;;;;;;;-145.69;100.00;73996.03;5030530;28;20200;-74
2022/01/21 01:01:12;;;;;;;15.33;3.17;;;;;;;-145.69;100.00;73996.03;5029791;28;20204;-77
2022/01/21 01:03:43;;;;;;;14.10;3.60;;;;;;;-145.69;100.00;73992.03;5030481;28;20197;-77
2022/01/21 01:06:09;;;;;;;22.33;3.97;;;;;;;-145.69;100.00;73996.03;5030858;28;20203;-77
2022/01/21 01:08:36;;;;;;;17.43;3.90;;;;;;;-145.69;100.00;74002.00;5024347;28;20193;-77
2022/01/21 01:22:08;;;;;;;10.13;3.50;;;;;;;-145.69;100.00;74009.97;5010583;28;20211;-77
2022/01/21 01:27:41;;;;;;;9.73;3.60;;;;;;;-145.69;100.00;74021.91;5010433;28;20204;-78
2022/01/21 01:30:13;;;;;;;7.87;3.30;;;;;;;-145.69;100.00;74027.88;5010405;28;20205;-77
2022/01/21 01:32:40;;;;;;;16.70;3.90;;;;;;;-145.69;100.00;74025.91;5010218;28;20887;-77
2022/01/21 01:35:09;;;;;;;11.60;3.70;;;;;;;-145.69;100.00;74019.91;5010239;28;20205;-77
2022/01/21 01:37:50;;;;;;;14.83;3.57;;;;;;;-145.69;100.00;74027.88;5010294;28;20205;-77
2022/01/21 01:40:23;;;;;;;7.80;3.13;;;;;;;-145.69;100.00;74029.88;5016902;28;20541;-77
2022/01/21 01:43:21;;;;;;;10.80;3.07;;;;;;;-145.69;100.00;74033.84;5026708;28;20196;-76
2022/01/21 01:51:18;;;;;;;14.97;3.77;;;;;;;-145.69;100.00;74037.84;5010196;28;20212;-77
2022/01/21 01:53:50;;;;;;;8.13;3.43;;;;;;;-145.69;100.00;74037.84;5010048;28;20311;-77
2022/01/21 01:56:25;;;;;;;12.60;3.47;;;;;;;-145.69;100.00;74037.84;5010123;28;20219;-76
2022/01/21 01:58:51;;;;;;;12.07;3.33;;;;;;;-145.69;100.00;74049.78;5016159;28;20203;-77
2022/01/21 02:01:19;;;;;;;11.30;3.43;;;;;;;-145.69;100.00;74053.78;5029515;28;20200;-76
2022/01/21 02:03:46;;;;;;;11.67;3.87;;;;;;;-145.69;100.00;74045.81;5029567;28;20206;-76
2022/01/21 02:06:12;;;;;;;16.37;3.67;;;;;;;-145.69;100.00;74045.81;5029676;28;20200;-77
2022/01/21 02:08:39;;;;;;;6.20;2.70;;;;;;;-145.69;100.00;74051.78;5021197;28;20193;-77
2022/01/21 02:11:05;;;;;;;12.27;3.20;;;;;;;-145.69;100.00;74053.78;5009819;28;20228;-76
2022/01/21 02:13:38;;;;;;;16.97;3.30;;;;;;;-145.69;100.00;74051.78;5011773;28;20232;-77
2022/01/21 02:16:11;;;;;;;15.20;3.50;;;;;;;-145.69;100.00;74061.72;5013668;28;20224;-77
2022/01/21 02:21:32;;;;;;;15.93;3.80;;;;;;;-145.69;100.00;74049.78;5013297;28;20212;-76
2022/01/21 02:24:02;;;;;;;10.43;3.70;;;;;;;-145.69;100.00;74037.84;5013165;28;20311;-77
2022/01/21 02:26:29;;;;;;;9.53;3.13;;;;;;;-145.69;100.00;74045.81;5013150;28;20726;-77
2022/01/21 02:28:58;;;;;;;9.77;3.03;;;;;;;-145.69;100.00;74031.88;5013128;28;20212;-77
2022/01/21 02:31:25;;;;;;;12.03;3.03;;;;;;;-145.69;100.00;74037.84;5013138;28;20721;-76
2022/01/21 02:33:51;;;;;;;18.57;3.60;;;;;;;-145.69;100.00;74049.78;5012954;28;20229;-76
2022/01/21 02:36:18;;;;;;;11.90;3.47;;;;;;;-145.69;100.00;74049.78;5012873;28;20595;-76
2022/01/21 02:38:46;;;;;;;8.80;2.70;;;;;;;-145.69;100.00;74057.75;5021465;28;20203;-77
2022/01/21 02:41:15;;;;;;;8.60;2.90;;;;;;;-145.69;100.00;74061.72;5032694;28;20292;-76
2022/01/21 02:43:42;;;;;;;6.73;2.83;;;;;;;-145.69;100.00;74069.69;5032635;28;20223;-77
2022/01/21 02:46:09;;;;;;;13.27;2.90;;;;;;;-145.69;100.00;74069.69;5032702;28;20199;-77
2022/01/21 02:48:37;;;;;;;11.43;2.40;;;;;;;-145.69;100.00;74069.69;5028921;28;20728;-77
2022/01/21 02:51:06;;;;;;;10.77;2.77;;;;;;;-145.69;100.00;74073.69;5013980;28;20204;-76
2022/01/21 02:54:03;;;;;;;10.33;2.80;;;;;;;-145.69;100.00;74069.69;5012854;28;20224;-77
2022/01/21 02:56:28;;;;;;;8.40;2.53;;;;;;;-145.69;100.00;74059.75;5012522;28;20213;-77
2022/01/21 02:58:55;;;;;;;7.67;2.43;;;;;;;-145.69;100.00;74053.78;5023835;28;20860;-77
2022/01/21 03:01:23;;;;;;;14.63;3.77;;;;;;;-145.69;100.00;74057.75;5032156;28;20215;-76
2022/01/21 03:03:50;;;;;;;13.03;3.17;;;;;;;-145.69;100.00;74027.88;5032169;28;20231;-77
2022/01/21 03:06:18;;;;;;;10.03;2.90;;;;;;;-145.69;100.00;74027.88;5032168;28;20604;-77
2022/01/21 03:08:48;;;;;;;9.80;3.10;;;;;;;-145.69;100.00;74029.88;5023118;28;20204;-77
2022/01/21 03:11:15;;;;;;;9.70;3.07;;;;;;;-145.69;100.00;74039.84;5012599;28;20200;-76
2022/01/21 03:13:44;;;;;;;12.60;3.23;;;;;;;-145.69;100.00;74043.81;5012190;28;20233;-77
2022/01/21 03:16:11;;;;;;;15.70;3.57;;;;;;;-145.69;100.00;74025.91;5012473;28;20208;-77
2022/01/21 03:18:37;;;;;;;11.10;3.07;;;;;;;-145.69;100.00;74037.84;5012272;28;20237;-77
2022/01/21 03:21:04;;;;;;;11.80;3.40;;;;;;;-145.69;100.00;74049.78;5012361;28;20205;-77
2022/01/21 03:23:31;;;;;;;12.87;3.20;;;;;;;-145.69;100.00;74029.88;5012510;28;20209;-77
2022/01/21 03:25:57;;;;;;;8.43;3.20;;;;;;;-145.69;100.00;74019.91;5011461;28;20287;-77
2022/01/21 03:28:24;;;;;;;9.47;2.77;;;;;;;-145.69;100.00;74017.94;5011952;28;20663;-76
2022/01/21 03:30:56;;;;;;;8.93;3.30;;;;;;;-145.69;100.00;74021.91;5012357;28;20246;-77
2022/01/21 03:33:25;;;;;;;5.73;2.77;;;;;;;-145.69;100.00;74029.88;5012125;28;20239;-77
2022/01/21 03:35:53;;;;;;;11.47;3.00;;;;;;;-145.69;100.00;74021.91;5012075;28;20201;-77
2022/01/21 03:38:24;;;;;;;10.30;2.60;;;;;;;-145.69;100.00;74031.88;5015974;28;20272;-76
2022/01/21 03:40:53;;;;;;;8.90;2.97;;;;;;;-145.69;100.00;74035.84;5031749;28;20287;-77
2022/01/21 03:43:22;;;;;;;13.87;2.93;;;;;;;-145.69;100.00;74033.84;5031863;28;20208;-77
2022/01/21 03:45:50;;;;;;;14.50;2.70;;;;;;;-145.69;100.00;74041.81;5031726;28;20242;-77
2022/01/21 03:48:18;;;;;;;7.63;2.70;;;;;;;-145.69;100.00;74045.81;5031492;28;20235;-76
2022/01/21 03:50:46;;;;;;;7.13;2.60;;;;;;;-145.69;100.00;74039.84;5031679;28;20211;-76
2022/01/21 03:53:12;;;;;;;11.47;2.73;;;;;;;-145.69;100.00;74035.84;5031433;28;20224;-76
2022/01/21 03:55:39;;;;;;;17.83;3.27;;;;;;;-145.69;100.00;74041.81;5031323;28;20666;-76
2022/01/21 03:58:08;;;;;;;11.77;2.90;;;;;;;-145.69;100.00;74031.88;5031525;28;20208;-76
2022/01/21 04:00:39;;;;;;;7.73;2.90;;;;;;;-145.69;100.00;74031.88;5031547;28;20200;-76
2022/01/21 04:03:09;;;;;;;6.93;2.93;;;;;;;-145.69;100.00;74025.91;5031427;28;20204;-77
2022/01/21 04:05:37;;;;;;;15.23;2.93;;;;;;;-145.69;100.00;74023.91;5031320;28;20216;-77
2022/01/21 04:08:05;;;;;;;13.63;3.23;;;;;;;-145.69;100.00;74025.91;5025768;28;20686;-76
2022/01/21 04:10:32;;;;;;;18.97;3.33;;;;;;;-145.69;100.00;74013.94;5011691;28;20223;-77
2022/01/21 04:12:58;;;;;;;15.00;3.30;;;;;;;-145.69;100.00;74009.97;5011566;28;20324;-77
2022/01/21 04:15:25;;;;;;;13.80;3.10;;;;;;;-145.69;100.00;74017.94;5011520;28;20232;-76
2022/01/21 04:17:51;;;;;;;13.10;2.93;;;;;;;-145.69;100.00;74029.88;5026739;28;20228;-76
2022/01/21 04:20:18;;;;;;;13.57;3.17;;;;;;;-145.69;100.00;74041.81;5011321;28;20197;-77
2022/01/21 04:22:46;;;;;;;8.50;2.90;;;;;;;-145.69;100.00;74049.78;5011220;28;20196;-77
2022/01/21 04:25:13;;;;;;;12.27;3.03;;;;;;;-145.69;100.00;74053.78;5011323;28;20676;-77
2022/01/21 04:27:40;;;;;;;8.17;3.00;;;;;;;-145.69;100.00;74049.78;5011422;28;20201;-77
2022/01/21 04:30:09;;;;;;;12.53;2.87;;;;;;;-145.69;100.00;74059.75;5011066;28;20208;-76
2022/01/21 04:32:37;;;;;;;13.23;2.70;;;;;;;-145.69;100.00;74065.72;5011145;28;20252;-77
2022/01/21 04:35:04;;;;;;;9.03;2.83;;;;;;;-145.69;100.00;74063.72;5010912;28;20588;-77
2022/01/21 04:37:31;;;;;;;11.63;2.43;;;;;;;-145.69;100.00;74053.78;5010004;28;20204;-77
2022/01/21 04:40:06;;;;;;;9.83;2.43;;;;;;;-145.69;100.00;74061.72;5030203;28;20197;-77
2022/01/21 04:48:04;;;;;;;8.40;2.50;;;;;;;-145.69;100.00;74061.72;5030731;28;20673;-76
2022/01/21 04:50:41;;;;;;;10.70;3.00;;;;;;;-145.69;100.00;74073.69;5030644;28;20210;-77
2022/01/21 04:53:08;;;;;;;11.17;2.23;;;;;;;-145.69;100.00;74075.69;5030689;28;20208;-77
2022/01/21 04:55:49;;;;;;;9.70;2.43;;;;;;;-145.69;100.00;74083.63;5030521;28;20196;-76
2022/01/21 04:58:15;;;;;;;12.73;2.37;;;;;;;-145.69;100.00;74069.69;5030309;28;20208;-77
2022/01/21 05:00:43;;;;;;;15.43;2.57;;;;;;;-145.69;100.00;74077.66;5030308;28;20204;-77
2022/01/21 05:03:13;;;;;;;12.87;2.90;;;;;;;-145.69;100.00;74081.66;5030537;28;20307;-76
2022/01/21 05:05:40;;;;;;;10.73;2.63;;;;;;;-145.69;100.00;74085.63;5030237;28;20211;-77
2022/01/21 05:08:09;;;;;;;10.50;2.47;;;;;;;-145.69;100.00;74083.63;5023249;28;20257;-77
2022/01/21 05:10:45;;;;;;;12.20;2.80;;;;;;;-145.69;100.00;74077.66;5010467;28;20291;-76
2022/01/21 05:13:21;;;;;;;14.70;2.83;;;;;;;-145.69;100.00;74095.59;5010609;28;20205;-76
2022/01/21 05:16:02;;;;;;;9.67;3.07;;;;;;;-145.69;100.00;74091.59;5010605;28;20286;-77
2022/01/21 05:18:30;;;;;;;11.63;2.83;;;;;;;-145.69;100.00;74093.59;5010625;28;20235;-77
2022/01/21 05:20:58;;;;;;;12.20;2.97;;;;;;;-145.69;100.00;74089.63;5010468;28;20324;-76
2022/01/21 05:23:27;;;;;;;5.90;2.20;;;;;;;-145.69;100.00;74093.59;5010691;28;20201;-77
2022/01/21 05:25:55;;;;;;;8.97;2.20;;;;;;;-145.69;100.00;74099.56;5010299;28;20663;-77
2022/01/21 05:28:21;;;;;;;10.60;2.40;;;;;;;-145.69;100.00;74105.53;5010522;28;20205;-77
2022/01/21 05:30:48;;;;;;;6.20;2.43;;;;;;;-145.69;100.00;74099.56;5010566;28;20201;-77
2022/01/21 05:33:16;;;;;;;16.63;2.87;;;;;;;-145.69;100.00;74101.56;5010166;28;20201;-76
2022/01/21 05:35:43;;;;;;;9.20;2.43;;;;;;;-145.69;100.00;74101.56;5010418;28;20278;-77
2022/01/21 05:38:09;;;;;;;14.27;2.70;;;;;;;-145.69;100.00;74097.56;5017196;28;20193;-77
2022/01/21 05:40:39;;;;;;;6.93;2.87;;;;;;;-145.69;100.00;74101.56;5030513;28;20780;-77
2022/01/21 05:43:12;;;;;;;11.17;3.00;;;;;;;-145.69;100.00;74101.56;5029987;28;20208;-77
2022/01/21 05:48:35;;;;;;;7.70;2.77;;;;;;;-145.69;100.00;74107.53;5031999;28;20277;-76
2022/01/21 05:51:01;;;;;;;7.67;2.73;;;;;;;-145.69;100.00;74125.44;5033422;28;20210;-76
2022/01/21 05:53:28;;;;;;;14.47;2.80;;;;;;;-145.69;100.00;74129.44;5033397;28;20208;-77
2022/01/21 05:56:00;;;;;;;8.10;2.70;;;;;;;-145.69;100.00;74125.44;5033323;28;20200;-77
2022/01/21 05:58:29;;;;;;;9.30;2.63;;;;;;;-145.69;100.00;74139.41;5033172;28;20332;-76
2022/01/21 06:00:56;;;;;;;16.27;3.00;;;;;;;-145.69;100.00;74145.38;5033433;28;20200;-76
2022/01/21 06:03:23;;;;;;;15.00;2.90;;;;;;;-145.69;100.00;74123.47;5033311;28;20204;-76
2022/01/21 06:05:49;;;;;;;11.67;2.57;;;;;;;-145.69;100.00;74129.44;5033067;28;20203;-77
2022/01/21 06:08:16;;;;;;;10.13;2.63;;;;;;;-145.69;100.00;74141.38;5022350;28;20197;-76
2022/01/21 06:10:43;;;;;;;17.97;3.20;;;;;;;-145.69;100.00;74139.41;5013214;28;20207;-76
2022/01/21 06:13:09;;;;;;;14.17;2.63;;;;;;;-145.69;100.00;74151.34;5013386;28;20201;-76
2022/01/21 06:15:38;;;;;;;7.23;2.83;;;;;;;-145.69;100.00;74155.31;5013512;28;20232;-76
2022/01/21 06:18:04;;;;;;;11.43;2.57;;;;;;;-145.69;100.00;74153.34;5013151;28;20306;-76
2022/01/21 06:20:35;;;;;;;17.83;3.40;;;;;;;-145.69;100.00;74145.38;5013185;28;20286;-76
2022/01/21 06:23:01;;;;;;;8.73;3.00;;;;;;;-145.69;100.00;74149.34;5013157;28;20659;-76
2022/01/21 06:25:28;;;;;;;9.30;2.57;;;;;;;-145.69;100.00;74153.34;5013028;28;20193;-76
2022/01/21 06:27:54;;;;;;;14.80;3.43;;;;;;;-145.69;100.00;74155.31;5013161;28;20207;-77
2022/01/21 06:30:21;;;;;;;12.33;2.70;;;;;;;-145.69;100.00;74159.31;5013098;28;20242;-76
2022/01/21 06:32:49;;;;;;;12.20;3.50;;;;;;;-145.69;100.00;74165.28;5012893;28;20718;-76
2022/01/21 06:35:18;;;;;;;17.20;3.03;;;;;;;-145.69;100.00;74165.28;5012604;28;20699;-76
2022/01/21 06:37:45;;;;;;;13.03;3.30;;;;;;;-145.69;100.00;74171.25;5018563;28;20196;-76
2022/01/21 06:40:11;;;;;;;16.17;3.00;;;;;;;-145.69;100.00;74167.28;5032847;28;20196;-76
2022/01/21 06:42:40;;;;;;;12.80;3.50;;;;;;;-145.69;100.00;74171.25;5032592;28;20207;-77
2022/01/21 06:45:07;;;;;;;11.70;2.80;;;;;;;-145.69;100.00;74177.22;5032619;28;20212;-76
2022/01/21 06:47:34;;;;;;;16.37;2.80;;;;;;;-145.69;100.00;74185.19;5032495;28;20204;-76
2022/01/21 06:50:06;;;;;;;8.40;3.07;;;;;;;-145.69;100.00;74181.22;5032487;28;20214;-77
2022/01/21 06:52:33;;;;;;;8.70;2.73;;;;;;;-145.69;100.00;74177.22;5032295;28;20200;-76
2022/01/21 06:55:00;;;;;;;10.97;3.30;;;;;;;-145.69;100.00;74189.19;5032610;28;20231;-76
2022/01/21 06:57:28;;;;;;;16.50;2.93;;;;;;;-145.69;100.00;74183.19;5032235;28;20678;-76
2022/01/21 06:59:56;;;;;;;14.97;2.80;;;;;;;-145.69;100.00;74189.19;5031305;28;20213;-77
2022/01/21 07:02:25;;;;;;;18.90;3.00;;;;;;;-145.69;100.00;74189.19;5032398;28;20221;-77
2022/01/21 07:04:52;;;;;;;9.30;2.70;;;;;;;-145.69;100.00;74197.13;5032099;28;20681;-77
2022/01/21 07:07:20;;;;;;;7.40;3.07;;;;;;;-145.69;100.00;74189.19;5027410;28;20203;-77
2022/01/21 07:09:47;;;;;;;7.77;2.80;;;;;;;-145.69;100.00;74193.16;5012519;28;20205;-77
2022/01/21 07:12:16;;;;;;;9.10;2.53;;;;;;;-145.69;100.00;74189.19;5012434;28;20201;-77
2022/01/21 07:14:43;;;;;;;9.13;3.00;;;;;;;-145.69;100.00;74197.13;5012518;28;20592;-77
2022/01/21 07:17:09;;;;;;;9.73;2.90;;;;;;;-145.69;100.00;74187.19;5014583;28;20204;-77
2022/01/21 07:19:36;;;;;;;8.60;3.10;;;;;;;-145.69;100.00;74191.16;4992858;28;20244;-77
2022/01/21 07:22:03;;;;;;;11.03;3.27;;;;;;;-145.69;100.00;74185.19;4992645;28;20552;-77
2022/01/21 07:24:31;;;;;;;8.87;3.23;;;;;;;-145.69;100.00;74181.22;4992737;28;20198;-77
2022/01/21 07:26:58;;;;;;;13.10;3.50;;;;;;;-145.69;100.00;74181.22;4992711;28;20552;-77
2022/01/21 07:29:26;;;;;;;11.70;3.13;;;;;;;-145.69;100.00;74173.25;4992570;28;20205;-77
2022/01/21 07:31:54;;;;;;;12.03;2.90;;;;;;;-145.69;100.00;74161.28;4992563;28;20205;-77
2022/01/21 07:34:21;;;;;;;9.70;3.13;;;;;;;-145.69;100.00;74153.34;4992191;28;20626;-77
2022/01/21 07:36:49;;;;;;;13.87;3.53;;;;;;;-145.69;100.00;74157.31;4992622;28;20205;-77
2022/01/21 07:39:15;;;;;;;13.43;3.43;;;;;;;-145.69;100.00;74153.34;5012020;28;20207;-77
2022/01/21 07:41:43;;;;;;;9.47;3.43;;;;;;;-145.69;100.00;74155.31;5012027;28;20564;-77
2022/01/21 07:44:12;;;;;;;12.07;3.33;;;;;;;-145.69;100.00;74137.41;5011937;28;20287;-77
2022/01/21 07:46:38;;;;;;;12.57;3.57;;;;;;;-145.69;100.00;74121.47;5011784;28;20204;-78
2022/01/21 07:49:05;;;;;;;14.30;3.27;;;;;;;-145.69;100.00;74121.47;5011767;28;20201;-77
2022/01/21 07:51:35;;;;;;;17.43;3.57;;;;;;;-145.69;100.00;74129.44;5011853;28;20686;-77
2022/01/21 07:54:02;;;;;;;10.90;3.17;;;;;;;-145.69;100.00;74119.47;5011725;28;20216;-77
2022/01/21 07:56:29;;;;;;;17.30;3.10;;;;;;;-145.69;100.00;74113.50;5011792;28;20205;-77
2022/01/21 07:58:56;;;;;;;12.93;3.53;;;;;;;-145.69;100.00;74107.53;5011766;28;20205;-77
2022/01/21 08:01:23;;;;;;;20.13;5.27;;;;;;;-145.69;100.00;74105.53;5010727;28;20690;-77
2022/01/21 08:03:49;;;;;;;11.50;3.03;;;;;;;-145.69;100.00;74061.72;4992176;28;20206;-77
2022/01/21 08:06:16;;;;;;;17.83;3.90;;;;;;;-145.69;100.00;74041.81;4992112;28;20241;-77
2022/01/21 08:08:42;;;;;;;17.70;6.57;;;;;;;-145.69;100.00;74021.91;4992140;28;20201;-78
2022/01/21 08:11:09;;;;;;;20.00;8.50;;;;;;;-145.69;100.00;74033.84;4991742;28;20208;-77
2022/01/21 08:13:36;;;;;;;19.40;7.53;;;;;;;-145.69;100.00;74015.94;4991752;28;20209;-77
2022/01/21 08:16:04;;;;;;;10.27;4.30;;;;;;;-145.69;100.00;74061.72;4992031;28;20247;-77
2022/01/21 08:18:31;;;;;;;10.23;3.77;;;;;;;-145.69;100.00;74097.56;5002191;28;20434;-77
2022/01/21 08:20:57;;;;;;;13.73;3.87;;;;;;;-145.69;100.00;74089.63;5011605;28;20208;-78
2022/01/21 08:23:24;;;;;;;13.63;3.30;;;;;;;-145.69;100.00;74065.72;5011360;28;20201;-77
2022/01/21 08:25:51;;;;;;;18.37;3.77;;;;;;;-145.69;100.00;74061.72;5012520;28;20204;-78
2022/01/21 08:28:17;;;;;;;15.23;3.13;;;;;;;-145.69;100.00;74085.63;5011184;28;20250;-78
2022/01/21 08:30:44;;;;;;;13.40;3.67;;;;;;;-145.69;100.00;74073.69;5011465;28;20207;-77
2022/01/21 08:33:12;;;;;;;13.23;2.87;;;;;;;-145.69;100.00;74097.56;5011100;28;20208;-77
2022/01/21 08:35:39;;;;;;;5.97;2.63;;;;;;;-145.69;100.00;74095.59;5011053;28;20260;-77
2022/01/21 08:38:06;;;;;;;10.07;3.50;;;;;;;-145.69;100.00;74109.53;5010638;28;20201;-77
2022/01/21 08:40:33;;;;;;;10.17;3.30;;;;;;;-145.69;100.00;74101.56;5011048;28;20560;-78
2022/01/21 08:43:00;;;;;;;17.07;3.73;;;;;;;-145.69;100.00;74089.63;5010987;28;20205;-78
2022/01/21 08:45:29;;;;;;;11.87;4.30;;;;;;;-145.69;100.00;74069.69;5011148;28;20219;-77
2022/01/21 08:47:55;;;;;;;5.37;2.53;;;;;;;-145.69;100.00;74073.69;5011033;28;20287;-77
2022/01/21 08:50:25;;;;;;;11.33;2.60;;;;;;;-145.69;100.00;74097.56;5011095;28;20208;-78
2022/01/21 08:52:55;;;;;;;12.50;3.00;;;;;;;-145.69;100.00;74073.69;5010811;28;20296;-77
2022/01/21 08:55:22;;;;;;;12.80;2.80;;;;;;;-145.69;100.00;74101.56;5024734;28;20227;-76
2022/01/21 08:57:51;;;;;;;10.83;2.70;;;;;;;-145.69;100.00;74085.63;5030753;28;20302;-77
2022/01/21 09:00:21;;;;;;;10.93;2.53;;;;;;;-145.69;100.00;74089.63;5028545;28;20666;-77
2022/01/21 09:02:51;;;;;;;9.37;2.50;;;;;;;-145.69;100.00;74041.81;5030242;28;20203;-77
2022/01/21 09:05:17;;;;;;;9.17;3.23;;;;;;;-145.69;99.66;74015.94;5030344;28;20203;-77
2022/01/21 09:07:45;;;;;;;7.50;2.50;;;;;;;-145.69;98.71;74021.91;5021261;28;20208;-77
2022/01/21 09:10:12;;;;;;;8.67;2.50;;;;;;;-145.69;97.24;74002.00;5027618;28;20211;-77
2022/01/21 09:12:39;;;;;;;6.63;2.50;;;;;;;-145.69;98.38;74043.81;5030256;28;20200;-77
2022/01/21 09:15:07;;;;;;;12.90;2.70;;;;;;;-145.69;97.87;74069.69;5030259;28;20228;-77
2022/01/21 09:17:37;;;;;;;11.50;2.83;;;;;;;-145.69;99.37;74069.69;5026699;28;20262;-76
2022/01/21 09:20:05;;;;;;;13.27;2.90;;;;;;;-145.69;95.67;74027.88;5030292;28;20636;-76
2022/01/21 09:22:31;;;;;;;9.47;2.33;;;;;;;-145.69;95.30;74011.97;5029279;28;20211;-76
2022/01/21 09:24:59;;;;;;;8.67;3.00;;;;;;;-145.69;97.03;74045.81;5030414;28;20208;-76
2022/01/21 09:27:25;;;;;;;11.87;2.53;;;;;;;-145.69;97.68;74041.81;5030269;28;20204;-76
2022/01/21 09:29:52;;;;;;;10.30;3.40;;;;;;;-145.69;99.61;74071.69;5030079;28;20200;-76
2022/01/21 09:32:19;;;;;;;15.43;3.20;;;;;;;-145.69;100.00;74075.69;5027091;28;20200;-77
2022/01/21 09:34:45;;;;;;;12.70;2.97;;;;;;;-145.69;100.00;74071.69;5023419;28;20228;-78
2022/01/21 09:37:11;;;;;;;14.07;3.10;;;;;;;-145.69;99.54;74049.78;5011514;28;20852;-77
2022/01/21 09:39:40;;;;;;;11.73;2.67;;;;;;;-145.69;98.53;74057.75;5018967;28;20201;-77
2022/01/21 09:42:09;;;;;;;11.43;3.47;;;;;;;-145.69;100.00;74089.63;5027703;28;20248;-76
2022/01/21 09:44:38;;;;;;;8.50;3.00;;;;;;;-145.69;100.00;74073.69;5029770;28;20207;-76
2022/01/21 09:47:05;;;;;;;17.50;3.40;;;;;;;-145.69;99.85;74077.66;5029820;28;20745;-76
2022/01/21 09:49:34;;;;;;;11.17;3.60;;;;;;;-145.69;99.31;74073.69;5029782;28;20212;-76
2022/01/21 09:52:06;;;;;;;12.10;3.37;;;;;;;-145.69;96.89;74053.78;5029963;28;20404;-76
2022/01/21 09:54:38;;;;;;;12.03;3.03;;;;;;;-145.69;95.23;74033.84;5029469;28;20200;-76
2022/01/21 09:57:09;;;;;;;7.43;3.10;;;;;;;-145.69;95.90;74047.78;5029776;28;20200;-76
2022/01/21 09:59:37;;;;;;;16.30;3.53;;;;;;;-145.69;96.79;74053.78;5029378;28;20226;-76
2022/01/21 10:02:06;;;;;;;7.77;3.30;;;;;;;-145.69;96.21;74007.97;5029652;28;20204;-76
2022/01/21 10:04:37;;;;;;;14.17;3.57;;;;;;;-145.69;94.58;74005.97;5029089;28;20206;-76
2022/01/21 10:07:04;;;;;;;13.17;3.17;;;;;;;-145.69;94.27;74021.91;5030018;28;20235;-76
2022/01/21 10:09:33;;;;;;;14.90;3.50;;;;;;;-145.69;95.47;74021.91;5028391;28;20437;-77
2022/01/21 10:12:01;;;;;;;15.53;3.70;;;;;;;-145.69;92.26;74007.97;5029613;28;20196;-77
2022/01/21 10:14:32;;;;;;;18.50;3.30;;;;;;;-145.69;91.21;73962.19;5029040;28;20651;-77
2022/01/21 10:17:02;;;;;;;11.53;2.87;;;;;;;-145.69;92.28;74000.00;5029677;28;20228;-77
2022/01/21 10:19:31;;;;;;;16.73;2.80;;;;;;;-145.69;93.19;73990.06;5029137;28;20274;-77
2022/01/21 10:22:00;;;;;;;8.70;2.37;;;;;;;-145.69;93.14;74021.91;5029251;28;20195;-76
2022/01/21 10:24:30;;;;;;;12.03;2.50;;;;;;;-145.69;92.34;74033.84;5029281;28;20300;-76
2022/01/21 10:26:57;;;;;;;10.33;2.80;;;;;;;-145.69;92.67;74029.88;5029393;28;20209;-77
2022/01/21 10:29:25;;;;;;;16.07;4.87;;;;;;;-145.69;93.22;73990.06;5029321;28;20670;-76
2022/01/21 10:31:56;;;;;;;11.03;2.87;;;;;;;-145.69;90.38;73976.13;5029384;28;20207;-77
2022/01/21 10:34:30;;;;;;;11.90;2.90;;;;;;;-145.69;88.18;73954.22;5029084;28;20230;-76
2022/01/21 10:37:04;;;;;;;9.67;3.23;;;;;;;-145.69;89.12;73998.03;5012923;28;20666;-76
2022/01/21 10:39:32;;;;;;;10.43;2.70;;;;;;;-145.69;87.12;73934.31;5012706;28;20295;-76
2022/01/21 10:42:00;;;;;;;10.00;2.67;;;;;;;-145.69;88.90;73982.09;5012665;28;20563;-77
2022/01/21 10:44:30;;;;;;;7.20;2.03;;;;;;;-145.69;89.82;74002.00;5012872;28;20212;-77
2022/01/21 10:47:07;;;;;;;14.47;2.53;;;;;;;-145.69;89.70;74013.94;5012868;28;20205;-76
2022/01/21 10:49:35;;;;;;;9.53;2.70;;;;;;;-145.69;92.08;74061.72;5012800;28;20566;-77
2022/01/21 10:52:03;;;;;;;13.20;2.93;;;;;;;-145.69;89.67;73994.03;5012518;28;20235;-76
2022/01/21 10:54:30;;;;;;;10.17;2.80;;;;;;;-145.69;88.53;73990.06;5012915;28;20205;-77
2022/01/21 10:57:10;;;;;;;14.00;3.33;;;;;;;-145.69;89.40;74035.84;5012846;28;20710;-76
2022/01/21 10:59:53;;;;;;;10.03;2.60;;;;;;;-145.69;89.39;74045.81;5012786;28;20269;-76
2022/01/21 11:02:40;;;;;;;7.97;2.43;;;;;;;-145.69;89.43;74027.88;5021263;28;20195;-77
2022/01/21 11:05:11;;;;;;;8.48;2.60;;;;;;;-145.69;89.92;74065.72;5014195;28;20461;-77
2022/01/21 11:07:48;;;;;;;7.07;2.60;;;;;;;-145.69;90.82;74073.69;5012527;28;20209;-76
2022/01/21 11:10:40;;;;;;;10.90;2.90;;;;;;;-145.69;88.77;74025.91;5012223;28;20681;-76
2022/01/21 11:13:38;;;;;;;9.10;2.33;;;;;;;-145.69;87.33;74017.94;5012297;28;20201;-76
2022/01/21 11:16:24;;;;;;;9.53;2.80;;;;;;;-145.69;88.12;73990.06;5016172;28;20229;-76
2022/01/21 11:19:05;;;;;;;12.63;2.87;;;;;;;-145.69;87.85;73986.06;5045321;28;20229;-77
2022/01/21 11:21:40;;;;;;;8.83;2.27;;;;;;;-145.69;88.22;74009.97;5116125;28;20255;-76
2022/01/21 11:24:08;;;;;;;6.37;2.47;;;;;;;-145.69;87.45;74013.94;5115854;28;20211;-76
2022/01/21 11:26:35;;;;;;;7.27;2.10;;;;;;;-145.69;86.81;73998.03;5115401;28;20293;-78
2022/01/21 11:29:03;;;;;;;11.87;2.50;;;;;;;-145.69;85.83;74004.00;5115721;28;20193;-75
2022/01/21 11:31:31;;;;;;;16.43;2.60;;;;;;;-145.69;86.32;74004.00;5115862;28;20221;-78
2022/01/21 11:33:59;;;;;;;8.13;2.60;;;;;;;-145.69;86.79;73990.06;5079605;28;20197;-77
2022/01/21 11:36:26;;;;;;;8.63;2.40;;;;;;;-145.69;86.20;73966.16;5011937;28;20237;-77
2022/01/21 11:38:55;;;;;;;7.70;2.80;;;;;;;-145.69;84.77;73970.16;5012034;28;20208;-77
2022/01/21 11:41:24;;;;;;;9.50;2.53;;;;;;;-145.69;83.26;73974.13;5012107;28;20218;-77
2022/01/21 11:43:53;;;;;;;7.70;2.30;;;;;;;-145.69;84.08;73982.09;5011837;28;20243;-77
2022/01/21 11:46:36;;;;;;;8.27;2.40;;;;;;;-145.69;83.18;74013.94;5011291;28;20205;-77
2022/01/21 11:49:09;;;;;;;12.37;2.57;;;;;;;-145.69;83.52;73982.09;5011959;28;20463;-77
2022/01/21 11:51:37;;;;;;;16.97;2.70;;;;;;;-145.69;81.73;73954.22;5012041;28;20212;-77
2022/01/21 11:54:06;;;;;;;6.30;2.00;;;;;;;-145.69;80.64;73906.44;5011699;28;20204;-77
2022/01/21 11:56:43;;;;;;;8.23;2.00;;;;;;;-145.69;78.86;73858.63;5011580;28;20247;-77